createdAt,value
2022-10-17T00:02:16.299Z,100.00
2022-10-17T00:05:22.352Z,100.00
2022-10-17T00:08:28.071Z,100.00
2022-10-17T00:11:34.054Z,100.00
2022-10-17T00:14:39.721Z,100.00
2022-10-17T00:17:45.654Z,100.00
2022-10-17T00:20:52.174Z,100.00
2022-10-17T00:23:57.542Z,100.00
2022-10-17T00:27:04.331Z,100.00
2022-10-17T00:30:14.817Z,100.00
2022-10-17T00:33:20.370Z,100.00
2022-10-17T00:36:27.345Z,100.00
2022-10-17T00:39:33.193Z,100.00
2022-10-17T00:42:39.847Z,100.00
2022-10-17T00:45:45.691Z,100.00
2022-10-17T00:48:54.915Z,100.00
2022-10-17T00:52:03.618Z,100.00
2022-10-17T00:55:21.267Z,100.00
2022-10-17T00:58:27.883Z,100.00
2022-10-17T01:01:33.660Z,100.00
2022-10-17T01:04:42.617Z,100.00
2022-10-17T01:07:51.481Z,100.00
2022-10-17T01:11:31.826Z,100.00
2022-10-17T01:14:59.145Z,100.00
2022-10-17T01:18:34.223Z,100.00
2022-10-17T01:22:04.660Z,100.00
2022-10-17T01:25:47.225Z,100.00
2022-10-17T01:29:06.920Z,100.00
2022-10-17T01:32:51.354Z,100.00
2022-10-17T01:36:06.493Z,100.00
2022-10-17T01:39:32.531Z,100.00
2022-10-17T01:42:41.643Z,100.00
2022-10-17T01:46:12.349Z,100.00
2022-10-17T01:49:25.054Z,100.00
2022-10-17T01:52:57.685Z,100.00
2022-10-17T01:56:10.023Z,100.00
2022-10-17T01:59:39.921Z,100.00
2022-10-17T02:02:49.415Z,100.00
2022-10-17T02:06:13.648Z,100.00
2022-10-17T02:09:24.758Z,100.00
2022-10-17T02:12:57.990Z,100.00
2022-10-17T02:16:14.514Z,100.00
2022-10-17T02:19:48.230Z,100.00
2022-10-17T02:23:34.217Z,100.00
2022-10-17T02:27:05.836Z,100.00
2022-10-17T02:30:23.845Z,100.00
2022-10-17T02:33:52.154Z,100.00
2022-10-17T02:37:02.416Z,100.00
2022-10-17T02:40:28.256Z,100.00
2022-10-17T02:43:37.610Z,100.00
2022-10-17T02:47:09.659Z,100.00
2022-10-17T02:50:16.177Z,100.00
2022-10-17T02:53:43.661Z,100.00
2022-10-17T02:57:05.994Z,100.00
2022-10-17T03:00:31.424Z,100.00
2022-10-17T03:03:36.878Z,100.00
2022-10-17T03:07:01.156Z,100.00
2022-10-17T03:10:07.590Z,100.00
2022-10-17T03:13:35.029Z,100.00
2022-10-17T03:16:43.328Z,100.00
2022-10-17T03:20:07.703Z,100.00
2022-10-17T03:23:13.095Z,100.00
2022-10-17T03:26:37.425Z,100.00
2022-10-17T03:29:43.508Z,100.00
2022-10-17T03:33:08.105Z,100.00
2022-10-17T03:36:17.300Z,100.00
2022-10-17T03:39:42.985Z,100.00
2022-10-17T03:42:48.883Z,100.00
2022-10-17T03:46:13.960Z,100.00
2022-10-17T03:49:20.727Z,100.00
2022-10-17T03:52:45.033Z,100.00
2022-10-17T03:55:50.924Z,100.00
2022-10-17T03:59:15.510Z,100.00
2022-10-17T04:02:27.331Z,100.00
2022-10-17T04:05:51.390Z,100.00
2022-10-17T04:08:57.302Z,100.00
2022-10-17T04:12:06.553Z,100.00
2022-10-17T04:15:15.178Z,100.00
2022-10-17T04:18:20.547Z,100.00
2022-10-17T04:21:28.474Z,100.00
2022-10-17T04:24:35.046Z,100.00
2022-10-17T04:27:46.835Z,100.00
2022-10-17T04:31:03.760Z,100.00
2022-10-17T04:34:14.812Z,100.00
2022-10-17T04:37:19.973Z,100.00
2022-10-17T04:40:27.623Z,100.00
2022-10-17T04:43:36.971Z,100.00
2022-10-17T04:46:42.305Z,100.00
2022-10-17T04:49:47.474Z,100.00
2022-10-17T04:52:54.536Z,100.00
2022-10-17T04:56:00.204Z,100.00
2022-10-17T04:59:05.584Z,100.00
2022-10-17T05:02:10.734Z,100.00
2022-10-17T05:05:16.110Z,100.00
2022-10-17T05:08:24.090Z,100.00
2022-10-17T05:11:30.517Z,100.00
2022-10-17T05:14:35.611Z,100.00
2022-10-17T05:17:41.480Z,100.00
2022-10-17T05:20:46.829Z,100.00
2022-10-17T05:23:52.794Z,100.00
2022-10-17T05:26:58.328Z,100.00
2022-10-17T05:30:03.782Z,100.00
2022-10-17T05:33:12.331Z,100.00
2022-10-17T05:36:18.888Z,100.00
2022-10-17T05:39:24.701Z,100.00
2022-10-17T05:42:31.245Z,100.00
2022-10-17T05:45:37.625Z,100.00
2022-10-17T05:48:44.946Z,100.00
2022-10-17T05:51:50.193Z,100.00
2022-10-17T05:54:55.482Z,100.00
2022-10-17T05:58:02.071Z,100.00
2022-10-17T06:01:13.692Z,100.00
2022-10-17T06:04:19.214Z,100.00
2022-10-17T06:07:24.962Z,100.00
2022-10-17T06:10:31.217Z,100.00
2022-10-17T06:13:39.347Z,100.00
2022-10-17T06:16:50.909Z,100.00
2022-10-17T06:19:57.543Z,100.00
2022-10-17T06:23:03.212Z,100.00
2022-10-17T06:26:34.571Z,100.00
2022-10-17T06:29:40.803Z,100.00
2022-10-17T06:32:46.362Z,100.00
2022-10-17T06:35:56.649Z,100.00
2022-10-17T06:39:03.535Z,100.00
2022-10-17T06:42:15.318Z,100.00
2022-10-17T06:45:48.245Z,100.00
2022-10-17T06:49:11.072Z,100.00
2022-10-17T06:52:22.726Z,100.00
2022-10-17T06:55:54.364Z,100.00
2022-10-17T06:59:24.177Z,100.00
2022-10-17T07:02:37.088Z,100.00
2022-10-17T07:05:42.180Z,100.00
2022-10-17T07:08:47.697Z,100.00
2022-10-17T07:11:56.437Z,100.00
2022-10-17T07:15:04.541Z,100.00
2022-10-17T07:18:11.308Z,100.00
2022-10-17T07:21:18.391Z,100.00
2022-10-17T07:24:24.243Z,100.00
2022-10-17T07:27:43.238Z,100.00
2022-10-17T07:30:52.005Z,100.00
2022-10-17T07:34:01.000Z,100.00
2022-10-17T07:37:07.866Z,100.00
2022-10-17T07:40:13.631Z,100.00
2022-10-17T07:43:19.031Z,100.00
2022-10-17T07:46:25.601Z,100.00
2022-10-17T07:49:31.328Z,100.00
2022-10-17T07:52:36.577Z,100.00
2022-10-17T07:55:43.061Z,100.00
2022-10-17T07:58:48.639Z,100.00
2022-10-17T08:01:57.398Z,100.00
2022-10-17T08:05:02.455Z,100.00
2022-10-17T08:08:08.817Z,100.00
2022-10-17T08:11:16.341Z,100.00
2022-10-17T08:14:22.082Z,100.00
2022-10-17T08:17:28.248Z,100.00
2022-10-17T08:20:33.572Z,100.00
2022-10-17T08:23:39.968Z,100.00
2022-10-17T08:26:48.287Z,100.00
2022-10-17T08:29:56.093Z,100.00
2022-10-17T08:33:01.653Z,100.00
2022-10-17T08:36:08.886Z,100.00
2022-10-17T08:39:14.182Z,100.00
2022-10-17T08:42:55.437Z,100.00
2022-10-17T08:46:08.031Z,100.00
2022-10-17T08:49:37.382Z,100.00
2022-10-17T08:52:52.425Z,100.00
2022-10-17T08:56:00.630Z,100.00
2022-10-17T08:59:17.795Z,100.00
2022-10-17T09:02:40.309Z,100.00
2022-10-17T09:06:02.141Z,100.00
2022-10-17T09:09:25.297Z,100.00
2022-10-17T09:12:57.404Z,100.00
2022-10-17T09:16:15.395Z,100.00
2022-10-17T09:19:24.870Z,100.00
2022-10-17T09:23:04.782Z,100.00
2022-10-17T09:26:11.973Z,100.00
2022-10-17T09:29:30.873Z,100.00
2022-10-17T09:32:41.422Z,100.00
2022-10-17T09:35:48.319Z,100.00
2022-10-17T09:39:00.258Z,100.00
2022-10-17T09:42:05.842Z,100.00
2022-10-17T09:45:11.400Z,100.00
2022-10-17T09:48:25.556Z,100.00
2022-10-17T09:51:32.693Z,100.00
2022-10-17T09:55:03.602Z,100.00
2022-10-17T09:58:10.856Z,100.00
2022-10-17T10:01:24.225Z,100.00
2022-10-17T10:04:30.468Z,100.00
2022-10-17T10:07:45.103Z,100.00
2022-10-17T10:10:59.480Z,100.00
2022-10-17T10:14:13.925Z,100.00
2022-10-17T10:17:44.440Z,100.00
2022-10-17T10:21:14.305Z,100.00
2022-10-17T10:24:20.640Z,100.00
2022-10-17T10:27:27.608Z,100.00
2022-10-17T10:30:36.195Z,100.00
2022-10-17T10:33:49.453Z,100.00
2022-10-17T10:37:16.990Z,100.00
2022-10-17T10:40:38.317Z,100.00
2022-10-17T10:43:48.061Z,100.00
2022-10-17T10:47:16.953Z,100.00
2022-10-17T10:50:34.754Z,100.00
2022-10-17T10:54:00.225Z,100.00
2022-10-17T10:57:12.144Z,100.00
2022-10-17T11:00:23.917Z,100.00
2022-10-17T11:03:51.508Z,100.00
2022-10-17T11:07:13.919Z,100.00
2022-10-17T11:10:58.462Z,100.00
2022-10-17T11:14:41.446Z,100.00
2022-10-17T11:17:57.409Z,100.00
2022-10-17T11:21:36.974Z,100.00
2022-10-17T11:25:11.853Z,100.00
2022-10-17T11:28:20.999Z,100.00
2022-10-17T11:31:33.218Z,100.00
2022-10-17T11:35:01.377Z,100.00
2022-10-17T11:38:18.316Z,100.00
2022-10-17T11:41:45.907Z,100.00
2022-10-17T11:45:06.914Z,100.00
2022-10-17T11:48:20.997Z,98.85
2022-10-17T11:54:58.297Z,97.08
2022-10-17T11:58:16.128Z,97.62
2022-10-17T12:01:53.001Z,96.75
2022-10-17T12:05:14.086Z,97.67
2022-10-17T12:08:38.168Z,97.94
2022-10-17T12:11:55.959Z,96.59
2022-10-17T12:15:14.105Z,97.01
2022-10-17T12:18:19.709Z,96.33
2022-10-17T12:21:27.323Z,95.01
2022-10-17T12:24:44.913Z,92.96
2022-10-17T12:27:51.485Z,94.21
2022-10-17T12:31:13.376Z,93.53
2022-10-17T12:34:24.249Z,92.91
2022-10-17T12:37:51.269Z,92.86
2022-10-17T12:41:00.989Z,92.71
2022-10-17T12:44:15.553Z,92.67
2022-10-17T12:47:36.964Z,92.74
2022-10-17T12:51:30.739Z,92.30
2022-10-17T12:54:27.420Z,91.39
2022-10-17T12:57:38.946Z,91.31
2022-10-17T13:01:05.309Z,89.81
2022-10-17T13:04:16.604Z,89.70
2022-10-17T13:07:23.943Z,88.21
2022-10-17T13:10:34.165Z,88.59
2022-10-17T13:13:49.167Z,89.22
2022-10-17T13:17:06.552Z,90.75
2022-10-17T13:20:29.056Z,90.23
2022-10-17T13:23:38.314Z,90.00
2022-10-17T13:26:46.060Z,89.72
2022-10-17T13:29:51.186Z,88.53
2022-10-17T13:32:57.569Z,87.72
2022-10-17T13:36:08.053Z,88.40
2022-10-17T13:39:23.151Z,88.12
2022-10-17T13:42:40.749Z,88.62
2022-10-17T13:45:52.801Z,88.53
2022-10-17T13:49:00.582Z,87.41
2022-10-17T13:52:16.112Z,86.52
2022-10-17T13:55:22.295Z,86.43
2022-10-17T13:58:35.543Z,86.63
2022-10-17T14:01:41.230Z,87.43
2022-10-17T14:08:22.891Z,88.21
2022-10-17T14:11:41.773Z,86.82
2022-10-17T14:18:33.286Z,87.56
2022-10-17T14:21:44.671Z,87.21
2022-10-17T14:24:53.506Z,87.01
2022-10-17T14:28:08.249Z,87.63
2022-10-17T14:31:26.053Z,85.36
2022-10-17T14:34:37.697Z,85.39
2022-10-17T14:37:46.664Z,85.48
2022-10-17T14:41:09.826Z,85.85
2022-10-17T14:44:31.161Z,87.18
2022-10-17T14:47:43.524Z,86.54
2022-10-17T14:51:16.677Z,87.30
2022-10-17T14:54:29.523Z,88.48
2022-10-17T14:57:43.630Z,87.38
2022-10-17T15:00:49.241Z,87.69
2022-10-17T15:03:54.371Z,87.75
2022-10-17T15:06:59.633Z,88.30
2022-10-17T15:10:06.334Z,88.05
2022-10-17T15:13:27.807Z,88.81
2022-10-17T15:16:35.476Z,89.52
2022-10-17T15:19:40.502Z,90.27
2022-10-17T15:22:46.124Z,89.51
2022-10-17T15:25:52.431Z,91.03
2022-10-17T15:28:59.276Z,91.50
2022-10-17T15:32:04.512Z,91.57
2022-10-17T15:35:10.032Z,91.66
2022-10-17T15:38:18.547Z,91.75
2022-10-17T15:41:27.064Z,92.34
2022-10-17T15:44:33.524Z,92.83
2022-10-17T15:47:39.290Z,93.24
2022-10-17T15:50:45.777Z,94.15
2022-10-17T15:53:52.948Z,94.85
2022-10-17T15:56:58.695Z,95.16
2022-10-17T16:00:07.009Z,95.19
2022-10-17T16:03:14.577Z,95.64
2022-10-17T16:06:21.801Z,95.96
2022-10-17T16:09:28.145Z,96.74
2022-10-17T16:12:41.452Z,96.78
2022-10-17T16:15:47.045Z,97.58
2022-10-17T16:18:55.666Z,98.24
2022-10-17T16:22:04.505Z,99.40
2022-10-17T16:25:28.606Z,100.00
2022-10-17T16:28:34.977Z,100.00
2022-10-17T16:31:43.590Z,100.00
2022-10-17T16:34:58.558Z,100.00
2022-10-17T16:38:17.492Z,100.00
2022-10-17T16:41:34.423Z,100.00
2022-10-17T16:44:43.167Z,100.00
2022-10-17T16:48:05.200Z,100.00
2022-10-17T16:52:00.789Z,100.00
2022-10-17T16:55:10.581Z,100.00
2022-10-17T16:58:16.066Z,100.00
2022-10-17T17:01:24.024Z,100.00
2022-10-17T17:04:29.729Z,100.00
2022-10-17T17:07:35.954Z,100.00
2022-10-17T17:10:47.621Z,100.00
2022-10-17T17:13:59.168Z,100.00
2022-10-17T17:17:04.674Z,100.00
2022-10-17T17:20:10.652Z,100.00
2022-10-17T17:23:16.947Z,100.00
2022-10-17T17:26:23.436Z,100.00
2022-10-17T17:29:29.091Z,100.00
2022-10-17T17:32:34.099Z,100.00
2022-10-17T17:35:40.636Z,100.00
2022-10-17T17:38:47.058Z,100.00
2022-10-17T17:41:52.525Z,100.00
2022-10-17T17:44:57.987Z,100.00
2022-10-17T17:48:04.006Z,100.00
2022-10-17T17:51:12.099Z,100.00
2022-10-17T17:54:17.634Z,100.00
2022-10-17T17:57:23.358Z,100.00
2022-10-17T18:00:29.437Z,100.00
2022-10-17T18:03:35.035Z,100.00
2022-10-17T18:06:40.900Z,100.00
2022-10-17T18:09:46.016Z,100.00
2022-10-17T18:12:51.246Z,100.00
2022-10-17T18:16:01.442Z,100.00
2022-10-17T18:19:11.618Z,100.00
2022-10-17T18:22:19.981Z,100.00
2022-10-17T18:25:27.950Z,100.00
2022-10-17T18:28:36.652Z,100.00
2022-10-17T18:31:42.446Z,100.00
2022-10-17T18:34:47.229Z,100.00
2022-10-17T18:37:52.417Z,100.00
2022-10-17T18:41:18.516Z,100.00
2022-10-17T18:44:24.134Z,100.00
2022-10-17T18:47:30.062Z,100.00
2022-10-17T18:50:39.086Z,100.00
2022-10-17T18:53:47.994Z,100.00
2022-10-17T18:56:55.234Z,100.00
2022-10-17T19:00:00.879Z,100.00
2022-10-17T19:03:08.148Z,100.00
2022-10-17T19:06:19.899Z,100.00
2022-10-17T19:09:25.465Z,100.00
2022-10-17T19:12:31.100Z,100.00
2022-10-17T19:15:37.284Z,100.00
2022-10-17T19:18:43.797Z,100.00
2022-10-17T19:21:50.493Z,100.00
2022-10-17T19:24:56.175Z,100.00
2022-10-17T19:28:01.842Z,100.00
2022-10-17T19:31:07.668Z,100.00
2022-10-17T19:34:14.822Z,100.00
2022-10-17T19:37:19.933Z,100.00
2022-10-17T19:40:25.434Z,100.00
2022-10-17T19:43:31.253Z,100.00
2022-10-17T19:46:37.514Z,100.00
2022-10-17T19:49:47.687Z,100.00
2022-10-17T19:52:55.477Z,100.00
2022-10-17T19:56:02.194Z,100.00
2022-10-17T19:59:09.645Z,100.00
2022-10-17T20:02:16.070Z,100.00
2022-10-17T20:05:25.962Z,100.00
2022-10-17T20:08:33.429Z,100.00
2022-10-17T20:11:38.485Z,100.00
2022-10-17T20:14:44.450Z,100.00
2022-10-17T20:17:49.878Z,100.00
2022-10-17T20:20:56.462Z,100.00
2022-10-17T20:24:03.977Z,100.00
2022-10-17T20:27:09.549Z,100.00
2022-10-17T20:30:15.265Z,100.00
2022-10-17T20:33:20.841Z,100.00
2022-10-17T20:36:27.219Z,100.00
2022-10-17T20:39:32.868Z,100.00
2022-10-17T20:42:38.585Z,100.00
2022-10-17T20:45:51.510Z,100.00
2022-10-17T20:48:58.995Z,100.00
2022-10-17T20:52:04.731Z,100.00
2022-10-17T20:55:10.506Z,100.00
2022-10-17T20:58:16.049Z,100.00
2022-10-17T21:01:22.682Z,100.00
2022-10-17T21:04:47.005Z,100.00
2022-10-17T21:07:52.850Z,100.00
2022-10-17T21:11:13.630Z,100.00
2022-10-17T21:14:19.370Z,100.00
2022-10-17T21:17:25.594Z,100.00
2022-10-17T21:20:31.383Z,100.00
2022-10-17T21:23:37.270Z,100.00
2022-10-17T21:26:44.101Z,100.00
2022-10-17T21:29:49.995Z,100.00
2022-10-17T21:32:55.904Z,100.00
2022-10-17T21:36:01.498Z,100.00
2022-10-17T21:42:19.577Z,100.00
2022-10-17T21:45:26.241Z,100.00
2022-10-17T21:48:33.119Z,100.00
2022-10-17T21:51:39.429Z,100.00
2022-10-17T21:54:45.067Z,100.00
2022-10-17T21:57:52.133Z,100.00
2022-10-17T22:01:12.665Z,100.00
2022-10-17T22:04:20.054Z,100.00
2022-10-17T22:07:25.983Z,100.00
2022-10-17T22:10:31.780Z,100.00
2022-10-17T22:13:38.517Z,100.00
2022-10-17T22:16:48.048Z,100.00
2022-10-17T22:19:53.365Z,100.00
2022-10-17T22:22:59.282Z,100.00
2022-10-17T22:26:06.092Z,100.00
2022-10-17T22:29:12.221Z,100.00
2022-10-17T22:32:21.512Z,100.00
2022-10-17T22:35:28.590Z,100.00
2022-10-17T22:38:34.825Z,100.00
2022-10-17T22:41:40.307Z,100.00
2022-10-17T22:44:47.010Z,100.00
2022-10-17T22:47:54.072Z,100.00
2022-10-17T22:51:00.469Z,100.00
2022-10-17T22:54:06.295Z,100.00
2022-10-17T22:57:13.039Z,100.00
2022-10-17T23:00:18.573Z,100.00
2022-10-17T23:03:27.077Z,100.00
2022-10-17T23:06:32.103Z,100.00
2022-10-17T23:09:37.860Z,100.00
2022-10-17T23:12:43.756Z,100.00
2022-10-17T23:15:54.369Z,100.00
2022-10-17T23:18:59.910Z,100.00
2022-10-17T23:22:06.806Z,100.00
2022-10-17T23:25:12.052Z,100.00
2022-10-17T23:28:18.173Z,100.00
2022-10-17T23:31:23.573Z,100.00
2022-10-17T23:34:30.805Z,100.00
2022-10-17T23:37:36.584Z,100.00
2022-10-17T23:40:42.534Z,100.00
2022-10-17T23:43:48.009Z,100.00
2022-10-17T23:46:53.959Z,100.00
2022-10-17T23:49:59.704Z,100.00
2022-10-17T23:53:05.471Z,100.00
2022-10-17T23:56:11.833Z,100.00
2022-10-17T23:59:17.525Z,100.00
